Weather at Kalnes Sykehus Heliport

Public forecast

Using degrees Celsius for public forecast. Weather courtesy of forecast.io.

Closest aviation weather report (METAR) to Kalnes Sykehus Heliport

Closest report is Moss Airport, Rygge, 8.1 nm (15.1 km) WNW.

2024/05/24 01:20 (retrieved 26 minutes ago)

ENRY 240120Z AUTO 09005KT 9999 NCD 15/12 Q1017

Closest aviation forecast (TAF) to Kalnes Sykehus Heliport

Forecast is more than 12 hours old.

Closest forecast is Deelen Air Base, 469.0 nm (868.6 km) SSW.

2024/05/22 05:03 (retrieved 2 days ago)

TAF TAF EHDL 220458Z 2205/2217 22007KT 7000 FEW005 SCT007 SCT009 BECMG 2206/2208 FEW012 SCT015 BKN018 BECMG 2208/2210 BKN022